createdAt,value
2023-01-23T00:00:45.016Z,2.92
2023-01-23T00:01:44.959Z,2.95
2023-01-23T00:02:45.009Z,2.99
2023-01-23T00:03:44.935Z,2.87
2023-01-23T00:04:44.825Z,2.89
2023-01-23T00:05:44.770Z,2.95
2023-01-23T00:06:44.720Z,2.92
2023-01-23T00:07:44.704Z,2.98
2023-01-23T00:08:44.630Z,2.86
2023-01-23T00:09:44.587Z,2.95
2023-01-23T00:10:44.613Z,2.89
2023-01-23T00:11:44.501Z,2.81
2023-01-23T00:12:44.454Z,2.87
2023-01-23T00:13:44.415Z,2.90
2023-01-23T00:14:44.372Z,2.84
2023-01-23T00:15:44.343Z,2.90
2023-01-23T00:16:44.267Z,2.90
2023-01-23T00:17:44.225Z,2.83
2023-01-23T00:18:44.177Z,2.87
2023-01-23T00:19:44.158Z,2.89
2023-01-23T00:20:44.100Z,2.92
2023-01-23T00:21:44.043Z,2.89
2023-01-23T00:22:43.995Z,2.92
2023-01-23T00:23:43.981Z,2.97
2023-01-23T00:24:43.899Z,2.90
2023-01-23T00:25:43.874Z,2.97
2023-01-23T00:26:43.885Z,2.84
2023-01-23T00:27:43.786Z,2.89
2023-01-23T00:28:43.723Z,2.86
2023-01-23T00:29:43.678Z,2.84
2023-01-23T00:30:43.635Z,2.86
2023-01-23T00:31:43.696Z,2.80
2023-01-23T00:32:43.534Z,2.95
2023-01-23T00:33:43.497Z,2.81
2023-01-23T00:34:43.444Z,2.89
2023-01-23T00:35:43.400Z,2.89
2023-01-23T00:36:43.356Z,2.87
2023-01-23T00:37:43.339Z,2.86
2023-01-23T00:38:43.279Z,2.94
2023-01-23T00:39:43.217Z,2.89
2023-01-23T00:40:43.172Z,2.84
2023-01-23T00:41:43.126Z,2.86
2023-01-23T00:42:43.160Z,2.83
2023-01-23T00:43:43.071Z,2.89
2023-01-23T00:44:43.000Z,2.80
2023-01-23T00:45:42.948Z,2.81
2023-01-23T00:46:42.932Z,2.92
2023-01-23T00:47:42.865Z,2.84
2023-01-23T00:48:42.807Z,2.80
2023-01-23T00:49:42.763Z,2.79
2023-01-23T00:50:42.735Z,2.83
2023-01-23T00:51:42.675Z,2.84
2023-01-23T00:52:42.627Z,2.84
2023-01-23T00:53:42.580Z,2.92
2023-01-23T00:54:42.532Z,2.81
2023-01-23T00:55:42.492Z,2.80
2023-01-23T00:56:42.450Z,2.79
2023-01-23T00:57:42.398Z,2.83
2023-01-23T00:58:45.040Z,2.94
2023-01-23T00:59:42.305Z,2.89
2023-01-23T01:00:42.263Z,2.87
2023-01-23T01:01:42.331Z,2.80
2023-01-23T01:02:42.202Z,2.79
2023-01-23T01:03:42.121Z,2.86
2023-01-23T01:04:42.083Z,2.92
2023-01-23T01:05:42.038Z,2.97
2023-01-23T01:06:41.983Z,2.98
2023-01-23T01:07:41.938Z,2.92
2023-01-23T01:08:41.899Z,2.84
2023-01-23T01:09:41.851Z,2.94
2023-01-23T01:10:41.826Z,2.89
2023-01-23T01:11:41.757Z,2.90
2023-01-23T01:12:41.715Z,2.89
2023-01-23T01:13:41.666Z,2.89
2023-01-23T01:14:41.698Z,2.95
2023-01-23T01:15:41.606Z,2.87
2023-01-23T01:16:41.526Z,2.95
2023-01-23T01:17:41.503Z,2.97
2023-01-23T01:18:41.435Z,2.84
2023-01-23T01:19:41.393Z,2.89
2023-01-23T01:20:41.343Z,2.87
2023-01-23T01:21:41.316Z,2.83
2023-01-23T01:22:41.262Z,2.90
2023-01-23T01:23:41.213Z,2.87
2023-01-23T01:24:41.161Z,2.87
2023-01-23T01:25:41.122Z,2.81
2023-01-23T01:26:41.071Z,2.87
2023-01-23T01:27:41.041Z,2.84
2023-01-23T01:28:40.979Z,2.87
2023-01-23T01:29:40.935Z,2.90
2023-01-23T01:30:41.098Z,2.81
2023-01-23T01:31:40.926Z,2.74
2023-01-23T01:32:40.810Z,2.84
2023-01-23T01:33:40.773Z,2.84
2023-01-23T01:34:40.711Z,2.77
2023-01-23T01:35:40.709Z,2.84
2023-01-23T01:36:40.663Z,2.80
2023-01-23T01:37:40.575Z,2.74
2023-01-23T01:38:40.562Z,2.68
2023-01-23T01:39:40.483Z,2.77
2023-01-23T01:40:40.434Z,2.83
2023-01-23T01:41:40.394Z,2.68
2023-01-23T01:42:40.341Z,2.74
2023-01-23T01:43:40.299Z,2.73
2023-01-23T01:44:40.260Z,2.80
2023-01-23T01:45:40.240Z,2.84
2023-01-23T01:46:40.301Z,2.81
2023-01-23T01:47:40.116Z,2.73
2023-01-23T01:48:40.072Z,2.84
2023-01-23T01:49:40.027Z,2.68
2023-01-23T01:50:39.992Z,2.74
2023-01-23T01:51:40.394Z,2.79
2023-01-23T01:52:39.887Z,2.76
2023-01-23T01:53:39.856Z,2.74
2023-01-23T01:54:39.800Z,2.74
2023-01-23T01:55:39.761Z,2.61
2023-01-23T01:56:39.710Z,2.74
2023-01-23T01:57:39.680Z,2.69
2023-01-23T01:58:39.612Z,2.71
2023-01-23T01:59:39.574Z,2.80
2023-01-23T02:00:39.540Z,2.74
2023-01-23T02:01:39.528Z,2.76
2023-01-23T02:02:39.539Z,2.73
2023-01-23T02:03:39.395Z,2.71
2023-01-23T02:04:39.339Z,2.74
2023-01-23T02:05:39.302Z,2.73
2023-01-23T02:06:39.249Z,2.61
2023-01-23T02:07:39.208Z,2.77
2023-01-23T02:08:39.172Z,2.76
2023-01-23T02:09:39.118Z,2.69
2023-01-23T02:10:39.066Z,2.79
2023-01-23T02:11:39.028Z,2.71
2023-01-23T02:12:38.973Z,2.71
2023-01-23T02:13:38.949Z,2.74
2023-01-23T02:14:38.883Z,2.77
2023-01-23T02:15:38.843Z,2.65
2023-01-23T02:16:38.859Z,2.74
2023-01-23T02:17:38.754Z,2.74
2023-01-23T02:18:38.785Z,2.74
2023-01-23T02:19:38.660Z,2.63
2023-01-23T02:20:38.611Z,2.77
2023-01-23T02:21:38.567Z,2.73
2023-01-23T02:22:38.529Z,2.68
2023-01-23T02:23:38.481Z,2.68
2023-01-23T02:24:38.425Z,2.81
2023-01-23T02:25:38.399Z,2.81
2023-01-23T02:26:38.339Z,2.87
2023-01-23T02:27:38.303Z,2.83
2023-01-23T02:28:38.266Z,2.87
2023-01-23T02:29:38.205Z,2.76
2023-01-23T02:30:38.155Z,2.68
2023-01-23T02:31:38.287Z,2.80
2023-01-23T02:32:38.081Z,2.84
2023-01-23T02:33:38.022Z,2.76
2023-01-23T02:34:38.051Z,2.81
2023-01-23T02:35:37.932Z,2.79
2023-01-23T02:36:37.905Z,2.79
2023-01-23T02:37:37.842Z,2.86
2023-01-23T02:38:37.796Z,2.79
2023-01-23T02:39:37.752Z,2.76
2023-01-23T02:40:37.709Z,2.71
2023-01-23T02:41:37.657Z,2.74
2023-01-23T02:42:37.629Z,2.63
2023-01-23T02:43:37.571Z,2.69
2023-01-23T02:44:37.529Z,2.61
2023-01-23T02:45:37.477Z,2.58
2023-01-23T02:46:37.443Z,2.61
2023-01-23T02:47:37.387Z,2.50
2023-01-23T02:48:37.358Z,2.41
2023-01-23T02:49:37.311Z,2.61
2023-01-23T02:50:37.321Z,2.43
2023-01-23T02:51:37.209Z,2.40
2023-01-23T02:52:37.151Z,2.40
2023-01-23T02:53:37.113Z,2.40
2023-01-23T02:54:37.129Z,2.43
2023-01-23T02:55:37.030Z,2.43
2023-01-23T02:56:36.970Z,2.44
2023-01-23T02:57:36.929Z,2.32
2023-01-23T02:58:36.889Z,2.36
2023-01-23T02:59:36.843Z,2.38
2023-01-23T03:00:36.801Z,2.44
2023-01-23T03:01:36.751Z,2.43
2023-01-23T03:02:36.699Z,2.27
2023-01-23T03:03:36.653Z,2.37
2023-01-23T03:04:36.605Z,2.29
2023-01-23T03:05:36.563Z,2.18
2023-01-23T03:06:36.889Z,2.20
2023-01-23T03:07:36.473Z,2.19
2023-01-23T03:08:36.441Z,2.25
2023-01-23T03:09:36.376Z,2.20
2023-01-23T03:10:36.329Z,2.08
2023-01-23T03:11:36.307Z,2.07
2023-01-23T03:12:36.236Z,1.86
2023-01-23T03:13:36.198Z,1.85
2023-01-23T03:14:36.149Z,1.88
2023-01-23T03:15:36.102Z,1.89
2023-01-23T03:16:38.166Z,1.88
2023-01-23T03:17:36.021Z,1.85
2023-01-23T03:18:48.952Z,1.89
2023-01-23T03:19:35.916Z,1.93
2023-01-23T03:20:35.891Z,1.88
2023-01-23T03:21:35.825Z,1.88
2023-01-23T03:22:35.866Z,1.98
2023-01-23T03:23:35.747Z,1.79
2023-01-23T03:24:35.690Z,1.81
2023-01-23T03:25:35.652Z,1.79
2023-01-23T03:26:35.588Z,1.81
2023-01-23T03:27:35.545Z,1.83
2023-01-23T03:28:35.495Z,1.68
2023-01-23T03:29:35.461Z,1.77
2023-01-23T03:30:35.436Z,1.82
2023-01-23T03:31:35.380Z,1.85
2023-01-23T03:32:35.313Z,1.90
2023-01-23T03:33:35.271Z,1.98
2023-01-23T03:34:35.219Z,2.08
2023-01-23T03:35:35.190Z,2.07
2023-01-23T03:36:35.125Z,2.09
2023-01-23T03:37:35.084Z,2.14
2023-01-23T03:38:35.108Z,2.12
2023-01-23T03:39:34.990Z,2.05
2023-01-23T03:40:34.942Z,2.25
2023-01-23T03:41:34.911Z,2.18
2023-01-23T03:42:34.873Z,2.11
2023-01-23T03:43:34.808Z,2.19
2023-01-23T03:44:34.759Z,2.18
2023-01-23T03:45:34.770Z,2.22
2023-01-23T03:46:34.660Z,2.20
2023-01-23T03:47:34.629Z,2.20
2023-01-23T03:48:34.575Z,2.22
2023-01-23T03:49:34.530Z,2.41
2023-01-23T03:50:34.480Z,2.33
2023-01-23T03:51:34.432Z,2.44
2023-01-23T03:52:34.384Z,2.37
2023-01-23T03:53:34.361Z,2.38
2023-01-23T03:54:34.368Z,2.41
2023-01-23T03:55:34.252Z,2.41
2023-01-23T03:56:34.201Z,2.45
2023-01-23T03:57:34.154Z,2.53
2023-01-23T03:58:34.113Z,2.50
2023-01-23T03:59:34.082Z,2.61
2023-01-23T04:00:34.021Z,2.59
2023-01-23T04:01:33.980Z,2.56
2023-01-23T04:02:33.997Z,2.59
2023-01-23T04:03:33.883Z,2.50
2023-01-23T04:04:33.834Z,2.61
2023-01-23T04:05:33.805Z,2.65
2023-01-23T04:06:33.743Z,2.69
2023-01-23T04:07:33.698Z,2.63
2023-01-23T04:08:33.659Z,2.55
2023-01-23T04:09:33.605Z,2.56
2023-01-23T04:10:33.647Z,2.63
2023-01-23T04:11:33.521Z,2.69
2023-01-23T04:12:33.469Z,2.53
2023-01-23T04:13:33.417Z,2.56
2023-01-23T04:14:33.376Z,2.68
2023-01-23T04:15:33.333Z,2.56
2023-01-23T04:16:33.313Z,2.69
2023-01-23T04:17:33.245Z,2.62
2023-01-23T04:18:33.202Z,2.61
2023-01-23T04:19:33.142Z,2.58
2023-01-23T04:20:33.099Z,2.68
2023-01-23T04:21:33.051Z,2.61
2023-01-23T04:22:33.027Z,2.80
2023-01-23T04:23:32.971Z,2.65
2023-01-23T04:24:32.928Z,2.69
2023-01-23T04:25:32.880Z,2.69
2023-01-23T04:26:32.901Z,2.68
2023-01-23T04:27:32.775Z,2.68
2023-01-23T04:28:32.739Z,2.66
2023-01-23T04:29:32.683Z,2.59
2023-01-23T04:30:32.762Z,2.56
2023-01-23T04:31:32.730Z,2.63
2023-01-23T04:32:32.547Z,2.56
2023-01-23T04:33:32.499Z,2.61
2023-01-23T04:34:32.455Z,2.61
2023-01-23T04:35:32.414Z,2.66
2023-01-23T04:36:32.375Z,2.55
2023-01-23T04:37:32.319Z,2.61
2023-01-23T04:38:41.430Z,2.58
2023-01-23T04:39:32.225Z,2.61
2023-01-23T04:40:32.182Z,2.69
2023-01-23T04:41:32.139Z,2.65
2023-01-23T04:42:32.185Z,2.61
2023-01-23T04:43:32.039Z,2.61
2023-01-23T04:44:32.003Z,2.63
2023-01-23T04:45:31.955Z,2.62
2023-01-23T04:46:31.931Z,2.65
2023-01-23T04:47:31.857Z,2.62
2023-01-23T04:48:31.818Z,2.53
2023-01-23T04:49:31.769Z,2.48
2023-01-23T04:50:31.723Z,2.56
2023-01-23T04:51:31.681Z,2.55
2023-01-23T04:52:31.659Z,2.53
2023-01-23T04:53:31.592Z,2.56
2023-01-23T04:54:31.538Z,2.47
2023-01-23T04:55:31.496Z,2.50
2023-01-23T04:56:31.448Z,2.51
2023-01-23T04:57:31.396Z,2.45
2023-01-23T04:58:31.438Z,2.44
2023-01-23T04:59:31.305Z,2.41
2023-01-23T05:00:31.260Z,2.40
2023-01-23T05:01:31.244Z,2.47
2023-01-23T05:02:31.186Z,2.44
2023-01-23T05:03:31.119Z,2.36
2023-01-23T05:04:31.094Z,2.33
2023-01-23T05:05:31.028Z,2.37
2023-01-23T05:06:30.986Z,2.32
2023-01-23T05:07:30.936Z,2.30
2023-01-23T05:08:30.917Z,2.44
2023-01-23T05:09:30.844Z,2.48
2023-01-23T05:10:30.799Z,2.44
2023-01-23T05:11:30.755Z,2.48
2023-01-23T05:12:30.716Z,2.40
2023-01-23T05:13:30.661Z,2.33
2023-01-23T05:14:30.703Z,2.29
2023-01-23T05:15:30.915Z,2.41
2023-01-23T05:16:30.529Z,2.40
2023-01-23T05:17:30.474Z,2.30
2023-01-23T05:18:30.435Z,2.36
2023-01-23T05:19:30.394Z,2.30
2023-01-23T05:20:30.357Z,2.41
2023-01-23T05:21:30.290Z,2.33
2023-01-23T05:22:30.245Z,2.29
2023-01-23T05:23:30.199Z,2.41
2023-01-23T05:24:30.157Z,2.37
2023-01-23T05:25:30.107Z,2.43
2023-01-23T05:26:30.074Z,2.38
2023-01-23T05:27:30.025Z,2.37
2023-01-23T05:28:29.969Z,2.33
2023-01-23T05:29:29.923Z,2.55
2023-01-23T05:30:29.962Z,2.37
2023-01-23T05:31:29.930Z,2.50
2023-01-23T05:32:29.785Z,2.37
2023-01-23T05:33:29.754Z,2.48
2023-01-23T05:34:29.700Z,2.40
2023-01-23T05:35:29.642Z,2.33
2023-01-23T05:36:29.599Z,2.44
2023-01-23T05:37:29.554Z,2.41
2023-01-23T05:38:29.510Z,2.37
2023-01-23T05:39:29.468Z,2.41
2023-01-23T05:40:29.423Z,2.33
2023-01-23T05:41:29.361Z,2.41
2023-01-23T05:42:29.324Z,2.43
2023-01-23T05:43:29.285Z,2.40
2023-01-23T05:44:29.236Z,2.41
2023-01-23T05:45:29.180Z,2.30
2023-01-23T05:46:29.252Z,2.26
2023-01-23T05:47:29.089Z,2.27
2023-01-23T05:48:29.049Z,2.38
2023-01-23T05:49:29.011Z,2.32
2023-01-23T05:50:28.951Z,2.27
2023-01-23T05:51:28.900Z,2.32
2023-01-23T05:52:28.856Z,2.12
2023-01-23T05:53:28.812Z,2.18
2023-01-23T05:54:28.775Z,2.05
2023-01-23T05:55:28.725Z,2.14
2023-01-23T05:56:28.678Z,2.08
2023-01-23T05:57:28.628Z,2.00
2023-01-23T05:58:28.584Z,2.00
2023-01-23T05:59:28.532Z,2.04
2023-01-23T06:00:28.514Z,1.92
2023-01-23T06:01:28.434Z,1.98
2023-01-23T06:02:28.558Z,1.89
2023-01-23T06:03:28.385Z,1.89
2023-01-23T06:04:28.304Z,1.88
2023-01-23T06:05:28.290Z,1.95
2023-01-23T06:06:28.220Z,1.95
2023-01-23T06:07:28.180Z,1.98
2023-01-23T06:08:28.123Z,1.81
2023-01-23T06:09:28.071Z,1.85
2023-01-23T06:10:28.030Z,1.72
2023-01-23T06:11:27.977Z,1.82
2023-01-23T06:12:27.939Z,1.74
2023-01-23T06:13:27.895Z,1.74
2023-01-23T06:14:27.841Z,1.75
2023-01-23T06:15:27.809Z,1.72
2023-01-23T06:16:27.742Z,1.68
2023-01-23T06:17:27.708Z,1.68
2023-01-23T06:18:27.737Z,1.65
2023-01-23T06:19:27.602Z,1.61
2023-01-23T06:20:27.554Z,1.57
2023-01-23T06:21:27.505Z,1.49
2023-01-23T06:22:27.481Z,1.56
2023-01-23T06:23:27.424Z,1.50
2023-01-23T06:24:27.371Z,1.56
2023-01-23T06:25:27.324Z,1.61
2023-01-23T06:26:27.281Z,1.74
2023-01-23T06:27:27.226Z,1.81
2023-01-23T06:28:27.187Z,1.77
2023-01-23T06:29:27.152Z,1.61
2023-01-23T06:30:27.090Z,1.74
2023-01-23T06:31:27.153Z,1.75
2023-01-23T06:32:26.997Z,1.74
2023-01-23T06:33:26.952Z,1.75
2023-01-23T06:34:26.999Z,1.65
2023-01-23T06:35:26.908Z,1.72
2023-01-23T06:36:26.809Z,1.64
2023-01-23T06:37:26.762Z,1.65
2023-01-23T06:38:26.717Z,1.71
2023-01-23T06:39:26.669Z,1.75
2023-01-23T06:40:26.636Z,1.82
2023-01-23T06:41:26.589Z,1.95
2023-01-23T06:42:26.531Z,1.81
2023-01-23T06:43:26.507Z,1.86
2023-01-23T06:44:26.441Z,1.77
2023-01-23T06:45:26.397Z,1.86
2023-01-23T06:46:26.376Z,1.88
2023-01-23T06:47:26.299Z,1.89
2023-01-23T06:48:26.254Z,1.98
2023-01-23T06:49:26.204Z,1.88
2023-01-23T06:50:26.240Z,2.02
2023-01-23T06:51:26.156Z,2.00
2023-01-23T06:52:26.073Z,2.01
2023-01-23T06:53:26.016Z,2.04
2023-01-23T06:54:25.978Z,2.04
2023-01-23T06:55:25.933Z,2.09
2023-01-23T06:56:25.884Z,2.02
2023-01-23T06:57:25.855Z,2.12
2023-01-23T06:58:25.802Z,2.23
2023-01-23T06:59:25.843Z,2.19
2023-01-23T07:00:25.718Z,2.29
2023-01-23T07:01:25.661Z,2.29
2023-01-23T07:02:25.617Z,2.27
2023-01-23T07:03:25.558Z,2.26
2023-01-23T07:04:25.525Z,2.44
2023-01-23T07:05:25.470Z,2.38
2023-01-23T07:06:25.524Z,2.33
2023-01-23T07:07:25.371Z,2.47
2023-01-23T07:08:25.330Z,2.47
2023-01-23T07:09:25.278Z,2.59
2023-01-23T07:10:25.249Z,2.66
2023-01-23T07:11:25.197Z,2.66
2023-01-23T07:12:25.167Z,2.73
2023-01-23T07:13:25.095Z,2.77
2023-01-23T07:14:25.065Z,2.76
2023-01-23T07:15:25.004Z,2.71
2023-01-23T07:16:25.093Z,2.73
2023-01-23T07:17:24.918Z,2.80
2023-01-23T07:18:24.888Z,2.83
2023-01-23T07:19:24.820Z,2.79
2023-01-23T07:20:24.773Z,2.89
2023-01-23T07:21:24.728Z,2.89
2023-01-23T07:22:24.784Z,2.86
2023-01-23T07:23:24.651Z,2.80
2023-01-23T07:24:24.604Z,2.77
2023-01-23T07:25:24.541Z,2.84
2023-01-23T07:26:24.496Z,2.98
2023-01-23T07:27:24.447Z,2.94
2023-01-23T07:28:24.406Z,3.02
2023-01-23T07:29:24.432Z,2.81
2023-01-23T07:30:24.316Z,2.81
2023-01-23T07:31:24.407Z,2.92
2023-01-23T07:32:24.225Z,2.80
2023-01-23T07:33:24.176Z,2.86
2023-01-23T07:34:24.133Z,2.89
2023-01-23T07:35:24.091Z,2.94
2023-01-23T07:36:24.038Z,2.90
2023-01-23T07:37:23.987Z,2.87
2023-01-23T07:38:24.032Z,2.94
2023-01-23T07:39:23.896Z,2.94
2023-01-23T07:40:23.853Z,3.02
2023-01-23T07:41:23.812Z,3.04
2023-01-23T07:42:23.777Z,2.99
2023-01-23T07:43:23.713Z,2.94
2023-01-23T07:44:23.674Z,2.97
2023-01-23T07:45:23.621Z,3.02
2023-01-23T07:46:23.583Z,3.10
2023-01-23T07:47:23.534Z,3.04
2023-01-23T07:48:23.484Z,3.07
2023-01-23T07:49:23.441Z,3.10
2023-01-23T07:50:23.475Z,2.99
2023-01-23T07:51:23.359Z,3.15
2023-01-23T07:52:23.313Z,2.98
2023-01-23T07:53:23.254Z,3.05
2023-01-23T07:54:23.287Z,3.01
2023-01-23T07:55:23.170Z,3.05
2023-01-23T07:56:23.134Z,3.12
2023-01-23T07:57:23.970Z,3.04
2023-01-23T07:58:23.039Z,3.08
2023-01-23T07:59:22.977Z,3.07
2023-01-23T08:00:24.578Z,3.05
2023-01-23T08:01:22.885Z,3.04
2023-01-23T08:02:22.845Z,2.99
2023-01-23T08:03:22.794Z,3.08
2023-01-23T08:04:22.772Z,3.10
2023-01-23T08:05:22.705Z,3.10
2023-01-23T08:06:22.658Z,3.19
2023-01-23T08:07:22.612Z,3.12
2023-01-23T08:08:22.566Z,3.16
2023-01-23T08:09:22.520Z,3.16
2023-01-23T08:10:22.881Z,3.04
2023-01-23T08:11:22.430Z,3.15
2023-01-23T08:12:22.395Z,3.15
2023-01-23T08:13:22.338Z,3.19
2023-01-23T08:14:22.296Z,3.22
2023-01-23T08:15:22.282Z,3.16
2023-01-23T08:16:22.242Z,3.13
2023-01-23T08:17:22.155Z,3.10
2023-01-23T08:18:22.110Z,3.19
2023-01-23T08:19:22.076Z,3.19
2023-01-23T08:20:22.465Z,3.22
2023-01-23T08:21:21.985Z,3.25
2023-01-23T08:22:21.938Z,3.20
2023-01-23T08:23:21.884Z,3.30
2023-01-23T08:24:21.847Z,3.25
2023-01-23T08:25:21.792Z,3.23
2023-01-23T08:26:21.833Z,3.30
2023-01-23T08:27:21.708Z,3.26
2023-01-23T08:28:21.652Z,3.22
2023-01-23T08:29:21.622Z,3.23
2023-01-23T08:30:21.951Z,3.23
2023-01-23T08:31:21.634Z,3.31
2023-01-23T08:32:21.469Z,3.23
2023-01-23T08:33:21.429Z,3.26
2023-01-23T08:34:21.379Z,3.34
2023-01-23T08:35:21.350Z,3.30
2023-01-23T08:36:21.294Z,3.31
2023-01-23T08:37:21.243Z,3.42
2023-01-23T08:38:21.209Z,3.35
2023-01-23T08:39:21.154Z,3.37
2023-01-23T08:40:21.388Z,3.30
2023-01-23T08:41:21.083Z,3.50
2023-01-23T08:42:21.103Z,3.45
2023-01-23T08:43:20.984Z,3.52
2023-01-23T08:44:21.914Z,3.54
2023-01-23T08:45:20.891Z,3.52
2023-01-23T08:46:20.850Z,3.50
2023-01-23T08:47:20.808Z,3.45
2023-01-23T08:48:20.756Z,3.44
2023-01-23T08:49:20.702Z,3.46
2023-01-23T08:50:21.024Z,3.42
2023-01-23T08:51:20.666Z,3.37
2023-01-23T08:52:20.744Z,3.39
2023-01-23T08:53:20.521Z,3.45
2023-01-23T08:54:20.474Z,3.46
2023-01-23T08:55:20.433Z,3.39
2023-01-23T08:56:20.385Z,3.42
2023-01-23T08:57:20.341Z,3.44
2023-01-23T08:58:20.385Z,3.49
2023-01-23T08:59:20.252Z,3.45
2023-01-23T09:00:20.487Z,3.44
2023-01-23T09:01:20.196Z,3.49
2023-01-23T09:02:20.148Z,3.54
2023-01-23T09:03:20.070Z,3.59
2023-01-23T09:04:20.037Z,3.52
2023-01-23T09:05:20.498Z,3.62
2023-01-23T09:06:19.931Z,3.52
2023-01-23T09:07:19.898Z,3.52
2023-01-23T09:08:19.838Z,3.54
2023-01-23T09:09:19.807Z,3.68
2023-01-23T09:10:20.075Z,3.77
2023-01-23T09:11:19.712Z,3.72
2023-01-23T09:12:19.658Z,3.70
2023-01-23T09:13:19.628Z,3.60
2023-01-23T09:14:19.661Z,3.64
2023-01-23T09:15:19.540Z,3.70
2023-01-23T09:16:19.589Z,3.57
2023-01-23T09:17:19.435Z,3.57
2023-01-23T09:18:19.389Z,3.57
2023-01-23T09:19:19.347Z,3.62
2023-01-23T09:20:19.654Z,3.62
2023-01-23T09:21:19.269Z,3.67
2023-01-23T09:22:19.218Z,3.77
2023-01-23T09:23:19.167Z,3.81
2023-01-23T09:24:19.120Z,3.78
2023-01-23T09:25:19.085Z,3.75
2023-01-23T09:26:20.001Z,3.82
2023-01-23T09:27:18.999Z,3.88
2023-01-23T09:28:18.944Z,3.78
2023-01-23T09:29:18.911Z,3.75
2023-01-23T09:30:19.369Z,3.88
2023-01-23T09:31:18.877Z,3.84
2023-01-23T09:32:18.758Z,3.88
2023-01-23T09:33:18.719Z,3.86
2023-01-23T09:34:18.673Z,3.86
2023-01-23T09:35:18.645Z,3.77
2023-01-23T09:36:18.584Z,3.81
2023-01-23T09:37:18.547Z,3.84
2023-01-23T09:38:18.499Z,3.77
2023-01-23T09:39:18.454Z,3.93
2023-01-23T09:40:18.802Z,3.92
2023-01-23T09:41:18.381Z,3.90
2023-01-23T09:42:18.324Z,4.00
2023-01-23T09:43:18.289Z,4.11
2023-01-23T09:44:18.243Z,4.16
2023-01-23T09:45:18.181Z,4.35
2023-01-23T09:46:18.301Z,4.24
2023-01-23T09:47:18.124Z,4.20
2023-01-23T09:48:18.053Z,4.20
2023-01-23T09:49:18.003Z,4.25
2023-01-23T09:50:18.027Z,4.28
2023-01-23T09:51:17.940Z,4.29
2023-01-23T09:52:17.867Z,4.26
2023-01-23T09:53:17.835Z,4.17
2023-01-23T09:54:17.779Z,4.25
2023-01-23T09:55:17.741Z,4.25
2023-01-23T09:56:17.690Z,4.11
2023-01-23T09:57:17.654Z,4.16
2023-01-23T09:58:17.603Z,4.14
2023-01-23T09:59:17.633Z,4.20
2023-01-23T10:00:17.600Z,4.18
2023-01-23T10:01:17.559Z,4.18
2023-01-23T10:02:17.520Z,4.38
2023-01-23T10:03:17.382Z,4.32
2023-01-23T10:04:17.345Z,4.36
2023-01-23T10:05:17.319Z,4.25
2023-01-23T10:06:17.245Z,4.35
2023-01-23T10:07:19.154Z,4.31
2023-01-23T10:08:17.156Z,4.36
2023-01-23T10:09:17.119Z,4.42
2023-01-23T10:10:17.072Z,4.44
2023-01-23T10:11:17.042Z,4.49
2023-01-23T10:12:16.983Z,4.42
2023-01-23T10:13:16.945Z,4.34
2023-01-23T10:14:17.467Z,4.42
2023-01-23T10:15:16.854Z,4.54
2023-01-23T10:16:16.835Z,4.47
2023-01-23T10:17:16.825Z,4.39
2023-01-23T10:18:16.806Z,4.29
2023-01-23T10:19:16.679Z,4.28
2023-01-23T10:20:16.630Z,4.42
2023-01-23T10:21:16.592Z,4.35
2023-01-23T10:22:22.827Z,4.34
2023-01-23T10:23:16.522Z,4.29
2023-01-23T10:24:16.455Z,4.29
2023-01-23T10:25:16.424Z,4.28
2023-01-23T10:26:16.396Z,4.31
2023-01-23T10:27:16.329Z,4.29
2023-01-23T10:28:16.296Z,4.26
2023-01-23T10:29:16.241Z,4.18
2023-01-23T10:30:16.193Z,4.16
2023-01-23T10:31:16.287Z,4.18
2023-01-23T10:32:16.107Z,4.24
2023-01-23T10:33:16.088Z,4.21
2023-01-23T10:34:16.093Z,4.29
2023-01-23T10:35:15.973Z,4.32
2023-01-23T10:36:23.433Z,4.34
2023-01-23T10:37:15.886Z,4.24
2023-01-23T10:39:47.957Z,4.24
2023-01-23T10:40:47.896Z,4.26
2023-01-23T10:41:51.116Z,4.25
2023-01-23T10:42:47.797Z,4.18
2023-01-23T10:43:47.878Z,4.16
2023-01-23T10:44:47.716Z,4.13
2023-01-23T10:45:47.756Z,4.18
2023-01-23T10:46:47.622Z,4.07
2023-01-23T10:47:52.027Z,4.24
2023-01-23T10:48:47.540Z,4.17
2023-01-23T10:49:47.574Z,4.17
2023-01-23T10:50:47.458Z,4.17
2023-01-23T10:51:47.410Z,4.24
2023-01-23T10:52:47.357Z,4.18
2023-01-23T10:53:47.309Z,4.13
2023-01-23T10:54:47.316Z,4.25
2023-01-23T10:55:47.231Z,4.25
2023-01-23T10:56:47.182Z,4.25
2023-01-23T10:57:47.133Z,4.32
2023-01-23T10:58:47.095Z,4.24
2023-01-23T10:59:47.043Z,4.42
2023-01-23T11:00:47.016Z,4.36
2023-01-23T11:01:53.177Z,4.36
2023-01-23T11:02:46.931Z,4.38
2023-01-23T11:03:46.871Z,4.32
2023-01-23T11:04:46.824Z,4.36
2023-01-23T11:05:52.839Z,4.35
2023-01-23T11:06:46.743Z,4.31
2023-01-23T11:07:46.703Z,4.36
2023-01-23T11:08:46.646Z,4.29
2023-01-23T11:09:46.618Z,4.29
2023-01-23T11:10:46.561Z,4.17
2023-01-23T11:11:46.519Z,4.24
2023-01-23T11:12:46.514Z,4.31
2023-01-23T11:13:46.435Z,4.16
2023-01-23T11:14:46.396Z,4.20
2023-01-23T11:15:46.417Z,4.24
2023-01-23T11:16:46.295Z,4.25
2023-01-23T11:17:46.248Z,4.28
2023-01-23T11:18:46.224Z,4.25
2023-01-23T11:19:46.167Z,4.38
2023-01-23T11:20:46.120Z,4.35
2023-01-23T11:21:46.144Z,4.44
2023-01-23T11:22:46.026Z,4.39
2023-01-23T11:23:45.992Z,4.46
2023-01-23T11:24:45.941Z,4.44
2023-01-23T11:25:45.920Z,4.39
2023-01-23T11:26:46.530Z,4.49
2023-01-23T11:27:45.819Z,4.53
2023-01-23T11:28:45.786Z,4.54
2023-01-23T11:29:45.763Z,4.43
2023-01-23T11:30:45.821Z,4.49
2023-01-23T11:31:45.773Z,4.42
2023-01-23T11:32:45.586Z,4.42
2023-01-23T11:33:45.542Z,4.47
2023-01-23T11:34:45.510Z,4.39
2023-01-23T11:35:45.469Z,4.46
2023-01-23T11:36:45.423Z,4.43
2023-01-23T11:37:45.440Z,4.42
2023-01-23T11:38:52.622Z,4.50
2023-01-23T11:39:45.287Z,4.61
2023-01-23T11:40:45.234Z,4.57
2023-01-23T11:41:45.186Z,4.56
2023-01-23T11:42:45.144Z,4.50
2023-01-23T11:43:45.099Z,4.54
2023-01-23T11:44:46.763Z,4.59
2023-01-23T11:45:45.010Z,4.62
2023-01-23T11:46:44.972Z,4.72
2023-01-23T11:47:44.942Z,4.64
2023-01-23T11:48:44.881Z,4.59
2023-01-23T11:49:44.844Z,4.59
2023-01-23T11:50:54.984Z,4.57
2023-01-23T11:51:44.744Z,4.62
2023-01-23T11:52:44.713Z,4.65
2023-01-23T11:53:44.825Z,4.57
2023-01-23T11:54:44.613Z,4.64
2023-01-23T11:55:44.582Z,4.77
2023-01-23T11:56:44.534Z,4.72
2023-01-23T11:57:44.498Z,4.64
2023-01-23T11:58:49.809Z,4.74
2023-01-23T11:59:44.394Z,4.65
2023-01-23T12:00:44.368Z,4.67
2023-01-23T12:01:49.278Z,4.65
2023-01-23T12:02:44.305Z,4.64
2023-01-23T12:03:44.296Z,4.68
2023-01-23T12:04:44.179Z,4.57
2023-01-23T12:05:44.131Z,4.61
2023-01-23T12:06:44.103Z,4.88
2023-01-23T12:07:44.048Z,4.77
2023-01-23T12:08:44.006Z,4.79
2023-01-23T12:09:44.033Z,4.88
2023-01-23T12:10:43.929Z,4.91
2023-01-23T12:11:45.670Z,4.96
2023-01-23T12:12:43.843Z,4.94
2023-01-23T12:13:43.785Z,4.99
2023-01-23T12:14:43.738Z,4.97
2023-01-23T12:15:43.727Z,5.06
2023-01-23T12:16:43.657Z,5.01
2023-01-23T12:17:43.606Z,4.94
2023-01-23T12:18:43.582Z,4.91
2023-01-23T12:19:43.520Z,4.86
2023-01-23T12:20:43.485Z,4.91
2023-01-23T12:21:43.432Z,4.94
2023-01-23T12:22:43.391Z,4.99
2023-01-23T12:23:43.364Z,4.87
2023-01-23T12:24:43.316Z,4.84
2023-01-23T12:25:43.336Z,4.88
2023-01-23T12:26:43.217Z,4.86
2023-01-23T12:27:43.179Z,4.79
2023-01-23T12:28:43.129Z,4.93
2023-01-23T12:29:43.095Z,4.79
2023-01-23T12:30:43.041Z,4.79
2023-01-23T12:31:43.089Z,4.93
2023-01-23T12:32:42.958Z,4.94
2023-01-23T12:33:42.912Z,5.09
2023-01-23T12:34:42.869Z,5.24
2023-01-23T12:35:42.835Z,5.15
2023-01-23T12:36:59.587Z,5.09
2023-01-23T12:37:42.739Z,5.05
2023-01-23T12:38:42.694Z,5.02
2023-01-23T12:39:42.647Z,5.01
2023-01-23T12:40:42.607Z,5.11
2023-01-23T12:41:42.650Z,5.17
2023-01-23T12:42:42.518Z,5.15
2023-01-23T12:43:42.476Z,5.14
2023-01-23T12:44:42.440Z,5.08
2023-01-23T12:45:42.390Z,4.97
2023-01-23T12:46:42.387Z,4.91
2023-01-23T12:47:42.311Z,4.97
2023-01-23T12:48:42.261Z,5.08
2023-01-23T12:49:42.226Z,5.15
2023-01-23T12:50:42.182Z,5.15
2023-01-23T12:51:42.137Z,5.09
2023-01-23T12:52:42.087Z,5.11
2023-01-23T12:53:42.041Z,5.12
2023-01-23T12:54:42.011Z,4.93
2023-01-23T12:55:41.958Z,4.93
2023-01-23T12:56:41.930Z,4.90
2023-01-23T12:58:08.147Z,5.05
2023-01-23T12:58:41.826Z,5.19
2023-01-23T12:59:41.782Z,5.26
2023-01-23T13:00:41.766Z,5.42
2023-01-23T13:01:41.699Z,5.24
2023-01-23T13:02:41.652Z,5.32
2023-01-23T13:03:46.439Z,5.24
2023-01-23T13:04:41.568Z,5.32
2023-01-23T13:05:41.521Z,5.11
2023-01-23T13:06:41.487Z,4.99
2023-01-23T13:07:41.446Z,5.05
2023-01-23T13:08:58.053Z,4.99
2023-01-23T13:09:41.362Z,4.99
2023-01-23T13:10:41.314Z,5.01
2023-01-23T13:11:41.258Z,5.04
2023-01-23T13:12:41.223Z,4.99
2023-01-23T13:13:41.269Z,4.90
2023-01-23T13:15:00.553Z,4.83
2023-01-23T13:15:41.450Z,4.93
2023-01-23T13:16:41.102Z,4.72
2023-01-23T13:17:41.014Z,4.94
2023-01-23T13:18:40.958Z,4.94
2023-01-23T13:19:40.922Z,4.91